Terminal Aerodrome Forecast
Issued by NWS

Home | Current Version | Previous Version | Text Only | Print | Product List | Glossary On
Versions: 1 2 3 4 5 6 7 8 9 10 11 12 13 14 15 16 17 18
000
FTUS46 KPDT 221739
TAFDLS
TAF
KDLS 221739Z 2218/2318 29011KT P6SM FEW045 BKN060
     FM222000 30015G23KT P6SM FEW080 BKN150
     FM222200 30020G28KT P6SM FEW100 BKN150
     FM230200 30011KT P6SM BKN120
     FM230600 VRB04KT P6SM BKN090=

USA.gov is the U.S. government's official web portal to all federal, state and local government web resources and services.